createdAt,value
2023-05-19T00:02:05.957Z,74.24
2023-05-19T00:05:18.546Z,74.16
2023-05-19T00:08:31.266Z,74.79
2023-05-19T00:11:41.338Z,75.33
2023-05-19T00:14:51.860Z,75.14
2023-05-19T00:18:00.236Z,75.19
2023-05-19T00:21:08.727Z,75.27
2023-05-19T00:24:17.091Z,74.97
2023-05-19T00:27:25.398Z,75.43
2023-05-19T00:30:35.436Z,75.75
2023-05-19T00:33:43.888Z,75.61
2023-05-19T00:36:52.421Z,74.93
2023-05-19T00:40:00.797Z,75.31
2023-05-19T00:43:09.416Z,75.38
2023-05-19T00:46:20.335Z,75.91
2023-05-19T00:49:29.530Z,74.73
2023-05-19T00:52:37.873Z,74.91
2023-05-19T00:55:47.335Z,75.01
2023-05-19T00:58:56.666Z,75.28
2023-05-19T01:02:06.949Z,75.32
2023-05-19T01:05:15.726Z,75.45
2023-05-19T01:08:24.969Z,76.03
2023-05-19T01:11:33.199Z,75.52
2023-05-19T01:14:42.119Z,75.77
2023-05-19T01:18:03.386Z,76.32
2023-05-19T01:21:44.477Z,76.55
2023-05-19T01:25:52.516Z,76.32
2023-05-19T01:29:33.520Z,76.74
2023-05-19T01:32:45.974Z,76.20
2023-05-19T01:35:57.587Z,76.59
2023-05-19T01:39:06.641Z,76.63
2023-05-19T01:42:16.812Z,76.91
2023-05-19T01:45:26.101Z,77.01
2023-05-19T01:48:35.868Z,76.87
2023-05-19T01:51:45.173Z,77.24
2023-05-19T01:54:53.652Z,76.84
2023-05-19T01:58:11.598Z,76.44
2023-05-19T02:01:34.922Z,75.95
2023-05-19T02:04:52.718Z,76.17
2023-05-19T02:08:12.892Z,76.81
2023-05-19T02:11:28.961Z,77.06
2023-05-19T02:14:46.432Z,77.28
2023-05-19T02:18:00.281Z,77.67
2023-05-19T02:21:13.328Z,77.33
2023-05-19T02:24:22.804Z,77.81
2023-05-19T02:27:31.035Z,77.43
2023-05-19T02:30:39.260Z,77.40
2023-05-19T02:33:47.519Z,78.16
2023-05-19T02:36:57.737Z,77.22
2023-05-19T02:40:08.129Z,78.29
2023-05-19T02:43:16.359Z,78.13
2023-05-19T02:46:24.772Z,77.68
2023-05-19T02:49:35.978Z,77.66
2023-05-19T02:52:45.770Z,78.82
2023-05-19T02:55:54.324Z,78.23
2023-05-19T02:59:02.514Z,77.71
2023-05-19T03:02:11.392Z,78.83
2023-05-19T03:05:20.251Z,78.35
2023-05-19T03:08:29.908Z,78.77
2023-05-19T03:11:38.116Z,78.70
2023-05-19T03:14:46.417Z,78.24
2023-05-19T03:17:54.879Z,78.53
2023-05-19T03:21:03.162Z,78.74
2023-05-19T03:24:12.681Z,78.40
2023-05-19T03:27:21.279Z,78.95
2023-05-19T03:30:29.488Z,78.60
2023-05-19T03:33:50.158Z,79.20
2023-05-19T03:36:58.406Z,78.55
2023-05-19T03:40:10.576Z,78.46
2023-05-19T03:43:21.784Z,78.29
2023-05-19T03:46:35.908Z,78.19
2023-05-19T03:50:05.144Z,78.36
2023-05-19T03:53:39.253Z,78.03
2023-05-19T03:56:49.126Z,78.24
2023-05-19T03:59:57.381Z,77.97
2023-05-19T04:03:05.715Z,77.50
2023-05-19T04:06:15.419Z,77.70
2023-05-19T04:09:24.389Z,77.17
2023-05-19T04:12:34.035Z,77.82
2023-05-19T04:15:42.375Z,77.84
2023-05-19T04:18:50.679Z,78.26
2023-05-19T04:21:59.100Z,77.31
2023-05-19T04:25:08.912Z,77.67
2023-05-19T04:28:18.822Z,77.94
2023-05-19T04:31:28.604Z,77.67
2023-05-19T04:34:40.157Z,77.25
2023-05-19T04:37:50.131Z,77.11
2023-05-19T04:41:02.068Z,76.11
2023-05-19T04:44:13.564Z,76.37
2023-05-19T04:47:22.488Z,76.38
2023-05-19T04:50:32.433Z,75.99
2023-05-19T04:53:43.596Z,75.74
2023-05-19T04:56:53.697Z,75.99
2023-05-19T05:00:07.986Z,75.48
2023-05-19T05:03:26.926Z,74.61
2023-05-19T05:06:38.434Z,74.67
2023-05-19T05:09:48.298Z,73.71
2023-05-19T05:12:57.252Z,73.74
2023-05-19T05:16:09.541Z,74.03
2023-05-19T05:19:18.901Z,74.21
2023-05-19T05:22:28.473Z,73.74
2023-05-19T05:25:38.066Z,73.26
2023-05-19T05:28:46.564Z,72.34
2023-05-19T05:31:56.217Z,72.97
2023-05-19T05:35:06.258Z,72.87
2023-05-19T05:38:15.748Z,73.52
2023-05-19T05:41:24.984Z,73.40
2023-05-19T05:44:35.792Z,72.27
2023-05-19T05:47:48.378Z,73.54
2023-05-19T05:51:00.044Z,72.67
2023-05-19T05:54:14.372Z,72.81
2023-05-19T05:57:27.280Z,73.07
2023-05-19T06:00:37.056Z,72.22
2023-05-19T06:03:48.579Z,70.48
2023-05-19T06:07:02.235Z,70.38
2023-05-19T06:10:15.660Z,68.85
2023-05-19T06:13:25.989Z,68.33
2023-05-19T06:16:34.699Z,67.54
2023-05-19T06:19:45.273Z,63.06
2023-05-19T06:22:53.947Z,60.01
2023-05-19T06:26:04.146Z,54.60
2023-05-19T06:29:13.925Z,57.16
2023-05-19T06:32:22.352Z,59.31
2023-05-19T06:35:32.613Z,56.09
2023-05-19T06:38:41.320Z,55.49
2023-05-19T06:41:51.354Z,50.70
2023-05-19T06:45:22.372Z,48.22
2023-05-19T06:48:32.860Z,49.52
2023-05-19T06:51:43.213Z,55.65
2023-05-19T06:54:52.014Z,54.47
2023-05-19T06:58:01.357Z,56.60
2023-05-19T07:01:10.157Z,54.68
2023-05-19T07:04:25.299Z,54.05
2023-05-19T07:07:35.412Z,54.75
2023-05-19T07:10:44.938Z,57.35
2023-05-19T07:13:56.428Z,60.96
2023-05-19T07:17:09.333Z,62.77
2023-05-19T07:20:21.633Z,63.78
2023-05-19T07:23:31.411Z,63.25
2023-05-19T07:26:39.944Z,61.80
2023-05-19T07:29:48.082Z,61.89
2023-05-19T07:32:57.800Z,61.82
2023-05-19T07:36:06.872Z,59.01
2023-05-19T07:39:16.682Z,61.57
2023-05-19T07:42:25.446Z,62.32
2023-05-19T07:45:33.812Z,62.42
2023-05-19T07:48:42.353Z,58.99
2023-05-19T07:51:50.880Z,56.11
2023-05-19T07:55:00.738Z,55.23
2023-05-19T07:58:09.130Z,53.10
2023-05-19T08:01:17.377Z,54.70
2023-05-19T08:04:25.805Z,56.78
2023-05-19T08:07:34.092Z,59.59
2023-05-19T08:10:43.872Z,60.56
2023-05-19T08:13:52.396Z,61.55
2023-05-19T08:17:00.898Z,62.02
2023-05-19T08:20:11.765Z,60.75
2023-05-19T08:23:20.930Z,57.58
2023-05-19T08:26:31.240Z,56.24
2023-05-19T08:29:39.606Z,55.64
2023-05-19T08:32:48.734Z,56.56
2023-05-19T08:35:58.544Z,58.23
2023-05-19T08:39:06.983Z,59.18
2023-05-19T08:42:16.669Z,58.57
2023-05-19T08:45:25.500Z,58.78
2023-05-19T08:48:38.745Z,56.32
2023-05-19T08:51:57.085Z,59.06
2023-05-19T08:55:11.546Z,59.91
2023-05-19T08:58:23.523Z,60.79
2023-05-19T09:01:33.276Z,60.44
2023-05-19T09:04:45.993Z,60.36
2023-05-19T09:07:56.099Z,58.62
2023-05-19T09:11:04.594Z,60.46
2023-05-19T09:14:14.463Z,62.06
2023-05-19T09:17:22.966Z,61.58
2023-05-19T09:20:33.131Z,61.17
2023-05-19T09:23:42.788Z,61.53
2023-05-19T09:26:51.196Z,62.36
2023-05-19T09:30:10.376Z,64.08
2023-05-19T09:33:21.015Z,63.06
2023-05-19T09:36:31.009Z,63.04
2023-05-19T09:39:40.605Z,63.65
2023-05-19T09:42:49.150Z,63.07
2023-05-19T09:46:01.821Z,64.11
2023-05-19T09:49:10.733Z,63.34
2023-05-19T09:52:20.393Z,62.66
2023-05-19T09:55:33.010Z,62.52
2023-05-19T09:58:43.669Z,62.87
2023-05-19T10:01:56.731Z,63.28
2023-05-19T10:05:06.153Z,63.32
2023-05-19T10:08:17.802Z,63.63
2023-05-19T10:11:33.820Z,64.48
2023-05-19T10:14:46.023Z,63.88
2023-05-19T10:17:57.776Z,63.56
2023-05-19T10:21:08.818Z,63.91
2023-05-19T10:24:17.806Z,63.91
2023-05-19T10:27:29.523Z,64.81
2023-05-19T10:30:43.096Z,63.04
2023-05-19T10:34:24.741Z,60.67
2023-05-19T10:37:45.551Z,62.11
2023-05-19T10:41:05.974Z,62.02
2023-05-19T10:44:29.350Z,61.02
2023-05-19T10:47:37.999Z,60.26
2023-05-19T10:50:48.636Z,61.27
2023-05-19T10:53:58.761Z,62.71
2023-05-19T10:57:08.441Z,62.57
2023-05-19T11:00:31.547Z,62.62
2023-05-19T11:03:53.782Z,60.20
2023-05-19T11:07:04.408Z,59.33
2023-05-19T11:10:13.763Z,57.11
2023-05-19T11:13:23.188Z,59.03
2023-05-19T11:16:33.652Z,57.02
2023-05-19T11:19:53.479Z,57.75
2023-05-19T11:23:11.179Z,57.31
2023-05-19T11:26:44.395Z,55.70
2023-05-19T11:29:53.223Z,56.26
2023-05-19T11:33:01.658Z,57.25
2023-05-19T11:36:12.582Z,57.57
2023-05-19T11:39:22.869Z,56.88
2023-05-19T11:42:34.115Z,56.03
2023-05-19T11:45:42.946Z,54.91
2023-05-19T11:48:51.955Z,56.09
2023-05-19T11:52:02.884Z,57.49
2023-05-19T11:55:17.231Z,58.92
2023-05-19T11:58:28.382Z,58.74
2023-05-19T12:01:37.425Z,60.48
2023-05-19T12:04:46.569Z,60.70
2023-05-19T12:07:55.703Z,61.45
2023-05-19T12:11:07.274Z,61.45
2023-05-19T12:14:15.891Z,61.71
2023-05-19T12:17:24.446Z,62.65
2023-05-19T12:20:35.803Z,61.68
2023-05-19T12:23:45.158Z,62.01
2023-05-19T12:27:08.849Z,61.97
2023-05-19T12:30:18.523Z,61.04
2023-05-19T12:33:28.405Z,60.79
2023-05-19T12:36:36.884Z,61.18
2023-05-19T12:39:45.875Z,60.21
2023-05-19T12:42:59.177Z,59.39
2023-05-19T12:46:12.509Z,58.77
2023-05-19T12:49:21.326Z,57.16
2023-05-19T12:52:31.551Z,56.46
2023-05-19T12:55:44.215Z,56.30
2023-05-19T12:58:56.706Z,54.18
2023-05-19T13:02:05.675Z,54.37
2023-05-19T13:05:14.275Z,56.81
2023-05-19T13:08:24.093Z,57.40
2023-05-19T13:11:32.623Z,56.42
2023-05-19T13:14:43.633Z,57.02
2023-05-19T13:17:52.286Z,55.69
2023-05-19T13:21:01.072Z,55.32
2023-05-19T13:24:09.467Z,55.72
2023-05-19T13:27:17.718Z,56.56
2023-05-19T13:30:27.986Z,57.06
2023-05-19T13:33:36.454Z,56.21
2023-05-19T13:36:48.127Z,55.64
2023-05-19T13:39:58.570Z,56.94
2023-05-19T13:43:07.880Z,57.09
2023-05-19T13:46:18.361Z,53.66
2023-05-19T13:49:27.912Z,53.44
2023-05-19T13:52:36.454Z,53.48
2023-05-19T13:55:45.949Z,53.35
2023-05-19T13:58:55.420Z,55.71
2023-05-19T14:02:06.563Z,55.53
2023-05-19T14:05:15.034Z,53.92
2023-05-19T14:08:23.824Z,56.41
2023-05-19T14:11:32.572Z,55.22
2023-05-19T14:14:41.105Z,57.19
2023-05-19T14:17:53.278Z,58.67
2023-05-19T14:21:02.940Z,60.40
2023-05-19T14:24:11.400Z,59.74
2023-05-19T14:27:19.657Z,59.41
2023-05-19T14:30:30.597Z,59.60
2023-05-19T14:33:41.397Z,59.07
2023-05-19T14:36:51.702Z,57.83
2023-05-19T14:40:00.936Z,55.80
2023-05-19T14:43:09.606Z,58.31
2023-05-19T14:46:18.221Z,56.03
2023-05-19T14:49:28.919Z,54.93
2023-05-19T14:52:37.816Z,55.26
2023-05-19T14:55:48.830Z,54.69
2023-05-19T14:58:57.653Z,53.35
2023-05-19T15:02:06.801Z,53.25
2023-05-19T15:05:17.458Z,53.11
2023-05-19T15:08:26.261Z,52.53
2023-05-19T15:11:34.664Z,53.74
2023-05-19T15:14:43.151Z,56.15
2023-05-19T15:17:51.671Z,56.60
2023-05-19T15:21:02.754Z,55.88
2023-05-19T15:24:11.951Z,56.76
2023-05-19T15:27:21.441Z,55.06
2023-05-19T15:30:30.277Z,55.99
2023-05-19T15:33:40.894Z,55.58
2023-05-19T15:36:52.266Z,56.16
2023-05-19T15:40:00.654Z,56.25
2023-05-19T15:43:09.337Z,56.11
2023-05-19T15:46:19.860Z,55.62
2023-05-19T15:49:31.567Z,53.25
2023-05-19T15:52:41.897Z,52.97
2023-05-19T15:55:50.906Z,52.14
2023-05-19T15:58:59.606Z,52.23
2023-05-19T16:02:08.351Z,52.42
2023-05-19T16:05:17.566Z,51.83
2023-05-19T16:08:29.764Z,51.45
2023-05-19T16:11:39.264Z,53.05
2023-05-19T16:14:52.329Z,53.60
2023-05-19T16:18:01.157Z,55.04
2023-05-19T16:21:10.855Z,55.81
2023-05-19T16:24:22.205Z,55.86
2023-05-19T16:27:31.140Z,55.80
2023-05-19T16:30:39.797Z,56.77
2023-05-19T16:33:48.500Z,56.10
2023-05-19T16:36:57.059Z,56.08
2023-05-19T16:40:08.637Z,55.47
2023-05-19T16:43:20.321Z,54.48
2023-05-19T16:46:29.925Z,55.11
2023-05-19T16:49:40.955Z,56.85
2023-05-19T16:52:49.521Z,57.36
2023-05-19T16:56:00.061Z,58.14
2023-05-19T16:59:10.566Z,58.83
2023-05-19T17:02:18.847Z,57.76
2023-05-19T17:05:27.724Z,58.71
2023-05-19T17:08:35.981Z,57.63
2023-05-19T17:11:46.025Z,57.02
2023-05-19T17:14:54.731Z,57.50
2023-05-19T17:18:02.984Z,57.77
2023-05-19T17:21:11.669Z,57.16
2023-05-19T17:24:20.682Z,58.27
2023-05-19T17:27:30.726Z,58.70
2023-05-19T17:30:41.741Z,59.25
2023-05-19T17:33:50.894Z,60.59
2023-05-19T17:36:59.218Z,59.89
2023-05-19T17:40:09.893Z,60.73
2023-05-19T17:43:20.440Z,62.76
2023-05-19T17:46:30.770Z,63.66
2023-05-19T17:49:45.543Z,62.86
2023-05-19T17:52:56.184Z,65.21
2023-05-19T17:56:10.118Z,63.94
2023-05-19T17:59:23.360Z,64.88
2023-05-19T18:02:33.250Z,65.91
2023-05-19T18:05:44.612Z,66.28
2023-05-19T18:08:58.511Z,65.13
2023-05-19T18:12:08.165Z,65.72
2023-05-19T18:15:18.814Z,65.34
2023-05-19T18:18:27.539Z,66.28
2023-05-19T18:21:36.044Z,66.99
2023-05-19T18:24:45.143Z,67.86
2023-05-19T18:27:55.792Z,68.32
2023-05-19T18:31:08.029Z,68.09
2023-05-19T18:34:16.518Z,67.09
2023-05-19T18:37:25.169Z,67.57
2023-05-19T18:40:33.983Z,68.51
2023-05-19T18:43:43.043Z,68.13
2023-05-19T18:46:53.773Z,69.05
2023-05-19T18:50:02.056Z,68.40
2023-05-19T18:53:11.746Z,68.99
2023-05-19T18:56:26.397Z,69.70
2023-05-19T18:59:35.238Z,69.82
2023-05-19T19:02:46.017Z,69.57
2023-05-19T19:05:59.675Z,70.21
2023-05-19T19:09:09.142Z,70.07
2023-05-19T19:12:19.103Z,70.29
2023-05-19T19:15:28.870Z,70.70
2023-05-19T19:18:41.251Z,70.68
2023-05-19T19:21:49.711Z,70.16
2023-05-19T19:24:59.039Z,70.62
2023-05-19T19:28:07.703Z,70.68
2023-05-19T19:31:16.116Z,70.60
2023-05-19T19:34:26.706Z,70.87
2023-05-19T19:37:35.635Z,71.50
2023-05-19T19:40:44.051Z,71.10
2023-05-19T19:43:53.125Z,70.93
2023-05-19T19:47:06.114Z,70.85
2023-05-19T19:50:17.158Z,71.26
2023-05-19T19:53:26.154Z,71.33
2023-05-19T19:56:35.006Z,71.98
2023-05-19T19:59:43.445Z,71.89
2023-05-19T20:03:03.629Z,71.44
2023-05-19T20:06:15.154Z,72.17
2023-05-19T20:09:23.942Z,72.16
2023-05-19T20:12:32.214Z,73.38
2023-05-19T20:15:41.104Z,73.79
2023-05-19T20:18:49.431Z,73.89
2023-05-19T20:21:59.109Z,74.78
2023-05-19T20:25:08.726Z,74.43
2023-05-19T20:28:17.306Z,74.47
2023-05-19T20:31:25.887Z,73.33
2023-05-19T20:34:34.325Z,73.57
2023-05-19T20:37:44.471Z,73.45
2023-05-19T20:40:53.213Z,73.12
2023-05-19T20:44:04.741Z,72.02
2023-05-19T20:47:21.801Z,72.06
2023-05-19T20:50:30.927Z,72.81
2023-05-19T20:53:41.332Z,74.04
2023-05-19T20:56:49.971Z,73.95
2023-05-19T20:59:59.119Z,73.68
2023-05-19T21:03:07.543Z,74.29
2023-05-19T21:06:15.997Z,73.87
2023-05-19T21:09:25.616Z,74.42
2023-05-19T21:12:35.278Z,74.92
2023-05-19T21:15:43.543Z,74.58
2023-05-19T21:18:51.949Z,75.54
2023-05-19T21:22:00.156Z,75.49
2023-05-19T21:25:11.013Z,75.02
2023-05-19T21:28:19.255Z,75.11
2023-05-19T21:31:27.676Z,75.21
2023-05-19T21:34:36.023Z,76.33
2023-05-19T21:37:44.222Z,76.49
2023-05-19T21:40:54.084Z,76.77
2023-05-19T21:44:02.313Z,77.02
2023-05-19T21:47:10.614Z,77.08
2023-05-19T21:50:19.074Z,77.24
2023-05-19T21:53:27.358Z,77.86
2023-05-19T21:56:37.498Z,77.55
2023-05-19T21:59:45.940Z,77.85
2023-05-19T22:02:54.636Z,78.12
2023-05-19T22:06:03.529Z,78.23
2023-05-19T22:09:12.868Z,79.79
2023-05-19T22:12:23.250Z,80.06
2023-05-19T22:15:31.434Z,80.03
2023-05-19T22:18:39.840Z,80.50
2023-05-19T22:21:48.336Z,80.79
2023-05-19T22:24:57.611Z,80.96
2023-05-19T22:28:08.313Z,81.87
2023-05-19T22:31:16.670Z,81.76
2023-05-19T22:34:25.012Z,82.37
2023-05-19T22:37:33.328Z,82.31
2023-05-19T22:40:41.632Z,82.69
2023-05-19T22:43:51.223Z,83.18
2023-05-19T22:46:59.345Z,83.02
2023-05-19T22:50:10.440Z,82.95
2023-05-19T22:53:18.630Z,82.76
2023-05-19T22:56:26.996Z,81.88
2023-05-19T22:59:38.239Z,81.24
2023-05-19T23:02:46.585Z,81.71
2023-05-19T23:05:54.761Z,81.54
2023-05-19T23:09:04.678Z,81.99
2023-05-19T23:12:12.830Z,81.91
2023-05-19T23:15:22.406Z,82.44
2023-05-19T23:18:30.633Z,82.23
2023-05-19T23:21:38.812Z,82.48
2023-05-19T23:24:47.101Z,83.53
2023-05-19T23:27:55.241Z,82.91
2023-05-19T23:31:04.819Z,83.51
2023-05-19T23:34:13.051Z,83.41
2023-05-19T23:37:21.376Z,83.65
2023-05-19T23:40:29.656Z,84.12
2023-05-19T23:43:37.858Z,84.35
2023-05-19T23:46:47.527Z,84.32
2023-05-19T23:49:55.748Z,84.68
2023-05-19T23:53:11.912Z,85.19
2023-05-19T23:56:29.714Z,84.59
2023-05-19T23:59:38.013Z,84.49
